GMTN/TTU METAR and TAF weather

Enter ICAO airport designator
Station Type Date Time Source
GMTN METAR 2020/05/30 05:00 UTC NOAA

GMTN 300500Z 09007KT 6000 OVC010 18/17 Q1013 NOSIG


Station Type Date Time Source
GMTN Decoded METAR 2020/05/30 05:00 UTC NOAA

Tetuan / Sania Ramel, Morocco (GMTN) 35-35N 005-20W 10M
May 30, 2020 - 01:00 AM EDT / 2020.05.30 0500 UTC
Wind: from the E (090 degrees) at 8 MPH (7 KT):0
Visibility: 3 mile(s):0
Sky conditions: overcast
Temperature: 64 F (18 C)
Dew Point: 62 F (17 C)
Relative Humidity: 93%
Pressure (altimeter): 29.91 in. Hg (1013 hPa)
ob: GMTN 300500Z 09007KT 6000 OVC010 18/17 Q1013 NOSIG
cycle: 5

Station Type Date Time Source
GMTN TAF UTC NOAA

Error!

Example: see airport list